createdAt,value
2022-10-16T00:00:05.698Z,0.00
2022-10-16T00:01:05.668Z,0.00
2022-10-16T00:02:05.575Z,0.00
2022-10-16T00:03:05.918Z,0.00
2022-10-16T00:04:05.908Z,0.00
2022-10-16T00:05:05.911Z,0.00
2022-10-16T00:06:05.500Z,0.00
2022-10-16T00:07:05.518Z,0.00
2022-10-16T00:08:05.859Z,0.00
2022-10-16T00:09:06.139Z,0.00
2022-10-16T00:10:06.147Z,0.00
2022-10-16T00:11:06.377Z,0.00
2022-10-16T00:12:05.589Z,0.00
2022-10-16T00:13:05.793Z,0.00
2022-10-16T00:14:05.779Z,0.00
2022-10-16T00:15:05.589Z,0.00
2022-10-16T00:16:06.198Z,0.00
2022-10-16T00:17:05.572Z,0.00
2022-10-16T00:18:05.617Z,0.00
2022-10-16T00:19:05.739Z,0.00
2022-10-16T00:20:05.409Z,0.00
2022-10-16T00:21:05.815Z,0.00
2022-10-16T00:22:05.616Z,0.00
2022-10-16T00:23:05.817Z,0.00
2022-10-16T00:24:06.236Z,0.00
2022-10-16T00:25:05.419Z,0.00
2022-10-16T00:26:05.427Z,0.00
2022-10-16T00:27:06.045Z,0.00
2022-10-16T00:28:05.335Z,0.00
2022-10-16T00:29:06.299Z,0.00
2022-10-16T00:30:05.692Z,0.00
2022-10-16T00:31:05.285Z,0.00
2022-10-16T00:32:05.295Z,0.00
2022-10-16T00:33:05.295Z,0.00
2022-10-16T00:34:05.305Z,0.00
2022-10-16T00:35:05.268Z,0.00
2022-10-16T00:36:05.294Z,0.00
2022-10-16T00:37:05.294Z,0.00
2022-10-16T00:38:05.235Z,0.00
2022-10-16T00:39:05.248Z,0.00
2022-10-16T00:40:05.236Z,0.00
2022-10-16T00:41:05.245Z,0.00
2022-10-16T00:42:05.267Z,0.00
2022-10-16T00:43:05.205Z,0.00
2022-10-16T00:44:05.304Z,0.00
2022-10-16T00:45:05.306Z,0.00
2022-10-16T00:46:05.318Z,0.00
2022-10-16T00:47:05.185Z,0.00
2022-10-16T00:49:05.353Z,0.00
2022-10-16T00:50:05.174Z,0.00
2022-10-16T00:51:05.183Z,0.00
2022-10-16T00:52:05.134Z,0.00
2022-10-16T00:53:05.195Z,0.00
2022-10-16T00:54:05.134Z,0.00
2022-10-16T00:55:05.227Z,0.00
2022-10-16T00:56:05.214Z,0.00
2022-10-16T00:57:05.177Z,0.00
2022-10-16T00:58:05.095Z,0.00
2022-10-16T00:59:05.131Z,0.00
2022-10-16T01:00:05.233Z,0.00
2022-10-16T01:01:05.286Z,0.00
2022-10-16T01:02:05.061Z,0.00
2022-10-16T01:03:05.072Z,0.00
2022-10-16T01:04:05.261Z,0.00
2022-10-16T01:05:05.275Z,0.00
2022-10-16T01:06:05.052Z,0.00
2022-10-16T01:07:05.281Z,0.00
2022-10-16T01:08:05.240Z,0.00
2022-10-16T01:09:05.099Z,0.00
2022-10-16T01:10:05.094Z,0.00
2022-10-16T01:11:05.101Z,0.00
2022-10-16T01:12:05.115Z,0.00
2022-10-16T01:13:05.131Z,0.00
2022-10-16T01:14:05.340Z,0.00
2022-10-16T01:15:05.018Z,0.00
2022-10-16T01:16:05.180Z,0.00
2022-10-16T01:17:05.353Z,0.00
2022-10-16T01:18:05.350Z,0.00
2022-10-16T01:19:04.979Z,0.00
2022-10-16T01:20:05.190Z,0.00
2022-10-16T01:21:05.596Z,0.00
2022-10-16T01:22:04.970Z,0.00
2022-10-16T01:23:05.591Z,0.00
2022-10-16T01:24:05.009Z,0.00
2022-10-16T01:25:05.609Z,0.00
2022-10-16T01:26:05.609Z,0.00
2022-10-16T01:27:05.618Z,0.00
2022-10-16T01:28:05.014Z,0.00
2022-10-16T01:29:05.671Z,0.00
2022-10-16T01:30:05.061Z,0.00
2022-10-16T01:31:05.649Z,0.00
2022-10-16T01:32:05.279Z,0.00
2022-10-16T01:33:04.878Z,0.00
2022-10-16T01:34:05.580Z,0.00
2022-10-16T01:35:04.862Z,0.00
2022-10-16T01:36:05.078Z,0.00
2022-10-16T01:37:04.896Z,0.00
2022-10-16T01:38:05.409Z,0.00
2022-10-16T01:39:05.097Z,0.00
2022-10-16T01:40:04.918Z,0.00
2022-10-16T01:41:05.097Z,0.00
2022-10-16T01:42:05.527Z,0.00
2022-10-16T01:43:05.750Z,0.00
2022-10-16T01:44:05.746Z,0.00
2022-10-16T01:45:05.126Z,0.00
2022-10-16T01:46:04.776Z,0.00
2022-10-16T01:47:04.926Z,0.00
2022-10-16T01:48:04.779Z,0.00
2022-10-16T01:49:04.938Z,0.00
2022-10-16T01:50:04.945Z,0.00
2022-10-16T01:51:04.776Z,0.00
2022-10-16T01:52:04.965Z,0.00
2022-10-16T01:53:04.735Z,0.00
2022-10-16T01:54:05.176Z,0.00
2022-10-16T01:55:04.978Z,0.00
2022-10-16T01:56:04.685Z,0.00
2022-10-16T01:57:05.197Z,0.00
2022-10-16T01:58:05.227Z,0.00
2022-10-16T01:59:04.773Z,0.00
2022-10-16T02:00:04.744Z,0.00
2022-10-16T02:01:04.788Z,0.00
2022-10-16T02:02:04.726Z,0.00
2022-10-16T02:03:04.734Z,0.00
2022-10-16T02:04:04.745Z,0.00
2022-10-16T02:05:04.743Z,0.00
2022-10-16T02:06:04.744Z,0.00
2022-10-16T02:07:04.666Z,0.00
2022-10-16T02:08:05.746Z,0.00
2022-10-16T02:09:04.604Z,0.00
2022-10-16T02:10:04.664Z,0.00
2022-10-16T02:11:04.875Z,0.00
2022-10-16T02:12:04.884Z,0.00
2022-10-16T02:13:04.892Z,0.00
2022-10-16T02:14:04.893Z,0.00
2022-10-16T02:15:04.924Z,0.00
2022-10-16T02:16:04.562Z,0.00
2022-10-16T02:17:04.573Z,0.00
2022-10-16T02:18:04.584Z,0.00
2022-10-16T02:19:04.750Z,0.00
2022-10-16T02:20:04.562Z,0.00
2022-10-16T02:21:04.732Z,0.00
2022-10-16T02:22:04.952Z,0.00
2022-10-16T02:23:04.552Z,0.00
2022-10-16T02:24:04.555Z,0.00
2022-10-16T02:25:04.553Z,0.00
2022-10-16T02:26:04.562Z,0.00
2022-10-16T02:27:04.571Z,0.00
2022-10-16T02:28:04.591Z,0.00
2022-10-16T02:29:04.791Z,0.00
2022-10-16T02:30:04.799Z,0.00
2022-10-16T02:31:04.711Z,0.00
2022-10-16T02:32:04.809Z,0.00
2022-10-16T02:33:04.857Z,0.00
2022-10-16T02:34:04.610Z,0.00
2022-10-16T02:35:04.450Z,0.00
2022-10-16T02:36:05.040Z,0.00
2022-10-16T02:37:04.441Z,0.00
2022-10-16T02:38:04.859Z,0.00
2022-10-16T02:39:04.449Z,0.00
2022-10-16T02:40:04.449Z,0.00
2022-10-16T02:41:04.709Z,0.00
2022-10-16T02:42:05.120Z,0.00
2022-10-16T02:43:04.769Z,0.00
2022-10-16T02:44:04.470Z,0.00
2022-10-16T02:45:04.790Z,0.00
2022-10-16T02:46:05.180Z,0.00
2022-10-16T02:47:05.363Z,0.00
2022-10-16T02:48:05.270Z,0.00
2022-10-16T02:49:04.348Z,0.00
2022-10-16T02:50:05.310Z,0.00
2022-10-16T02:51:05.208Z,0.00
2022-10-16T02:52:04.319Z,0.00
2022-10-16T02:53:04.938Z,0.00
2022-10-16T02:54:04.746Z,0.00
2022-10-16T02:55:04.958Z,0.00
2022-10-16T02:56:04.600Z,0.00
2022-10-16T02:57:05.147Z,0.00
2022-10-16T02:58:04.410Z,0.00
2022-10-16T02:59:04.566Z,0.00
2022-10-16T03:00:04.284Z,0.00
2022-10-16T03:01:04.837Z,0.00
2022-10-16T03:02:04.258Z,0.00
2022-10-16T03:03:04.403Z,0.00
2022-10-16T03:04:04.266Z,0.00
2022-10-16T03:05:04.416Z,0.00
2022-10-16T03:06:04.418Z,0.00
2022-10-16T03:07:04.224Z,0.00
2022-10-16T03:08:04.232Z,0.00
2022-10-16T03:09:04.637Z,0.00
2022-10-16T03:10:04.307Z,0.00
2022-10-16T03:11:04.444Z,0.00
2022-10-16T03:12:04.505Z,0.00
2022-10-16T03:13:04.515Z,0.00
2022-10-16T03:14:04.773Z,0.00
2022-10-16T03:15:04.330Z,0.00
2022-10-16T03:16:04.148Z,0.00
2022-10-16T03:17:04.134Z,0.00
2022-10-16T03:18:04.152Z,0.00
2022-10-16T03:19:04.183Z,0.00
2022-10-16T03:20:04.364Z,0.00
2022-10-16T03:21:04.313Z,0.00
2022-10-16T03:22:04.115Z,0.00
2022-10-16T03:23:04.524Z,0.00
2022-10-16T03:24:04.136Z,0.00
2022-10-16T03:25:04.185Z,0.00
2022-10-16T03:26:04.592Z,0.00
2022-10-16T03:27:04.125Z,0.00
2022-10-16T03:28:04.673Z,0.00
2022-10-16T03:29:04.472Z,0.00
2022-10-16T03:30:04.212Z,0.00
2022-10-16T03:31:04.032Z,0.00
2022-10-16T03:32:04.034Z,0.00
2022-10-16T03:33:04.654Z,0.00
2022-10-16T03:34:04.922Z,0.00
2022-10-16T03:35:04.001Z,0.00
2022-10-16T03:36:03.993Z,0.00
2022-10-16T03:37:04.027Z,0.00
2022-10-16T03:38:04.019Z,0.00
2022-10-16T03:39:04.030Z,0.00
2022-10-16T03:40:04.020Z,0.00
2022-10-16T03:41:04.091Z,0.00
2022-10-16T03:42:04.101Z,0.00
2022-10-16T03:43:04.133Z,0.00
2022-10-16T03:44:03.961Z,0.00
2022-10-16T03:45:03.944Z,0.00
2022-10-16T03:46:04.118Z,0.00
2022-10-16T03:47:03.947Z,0.00
2022-10-16T03:48:04.139Z,0.00
2022-10-16T03:49:06.121Z,0.00
2022-10-16T03:50:04.281Z,0.00
2022-10-16T03:51:04.088Z,0.00
2022-10-16T03:52:04.229Z,0.00
2022-10-16T03:53:04.308Z,0.00
2022-10-16T03:54:04.099Z,0.00
2022-10-16T03:55:04.320Z,0.00
2022-10-16T03:56:04.119Z,0.00
2022-10-16T03:57:04.130Z,0.00
2022-10-16T03:58:04.340Z,0.00
2022-10-16T03:59:03.928Z,0.00
2022-10-16T04:00:03.949Z,0.00
2022-10-16T04:01:04.181Z,0.00
2022-10-16T04:02:03.967Z,0.00
2022-10-16T04:03:03.818Z,0.00
2022-10-16T04:04:04.240Z,0.00
2022-10-16T04:05:04.048Z,0.00
2022-10-16T04:06:04.390Z,0.00
2022-10-16T04:07:04.398Z,0.00
2022-10-16T04:08:04.097Z,0.00
2022-10-16T04:09:03.779Z,0.00
2022-10-16T04:10:04.487Z,0.00
2022-10-16T04:11:04.497Z,0.00
2022-10-16T04:12:04.500Z,0.00
2022-10-16T04:13:04.297Z,0.00
2022-10-16T04:14:04.026Z,0.00
2022-10-16T04:15:03.734Z,0.00
2022-10-16T04:16:03.727Z,0.00
2022-10-16T04:17:03.846Z,0.00
2022-10-16T04:18:03.845Z,0.00
2022-10-16T04:19:03.856Z,0.00
2022-10-16T04:20:03.946Z,0.00
2022-10-16T04:21:03.986Z,0.00
2022-10-16T04:22:04.086Z,0.00
2022-10-16T04:23:03.703Z,0.00
2022-10-16T04:24:04.106Z,0.00
2022-10-16T04:25:03.785Z,0.00
2022-10-16T04:26:04.196Z,0.00
2022-10-16T04:27:04.324Z,0.00
2022-10-16T04:28:04.124Z,0.00
2022-10-16T04:29:04.398Z,0.00
2022-10-16T04:30:04.014Z,0.00
2022-10-16T04:31:03.804Z,0.00
2022-10-16T04:32:04.144Z,0.00
2022-10-16T04:33:03.608Z,0.00
2022-10-16T04:34:04.543Z,0.00
2022-10-16T04:35:03.754Z,0.00
2022-10-16T04:36:04.594Z,0.00
2022-10-16T04:37:04.503Z,0.00
2022-10-16T04:38:03.583Z,0.00
2022-10-16T04:39:04.060Z,0.00
2022-10-16T04:40:03.590Z,0.00
2022-10-16T04:41:04.373Z,0.00
2022-10-16T04:42:04.083Z,0.00
2022-10-16T04:43:04.177Z,0.00
2022-10-16T04:44:03.530Z,0.00
2022-10-16T04:45:03.540Z,0.00
2022-10-16T04:46:03.611Z,0.00
2022-10-16T04:47:03.918Z,0.00
2022-10-16T04:48:03.512Z,0.00
2022-10-16T04:49:04.332Z,0.00
2022-10-16T04:50:03.543Z,0.00
2022-10-16T04:51:04.439Z,0.00
2022-10-16T04:52:03.512Z,0.00
2022-10-16T04:53:03.479Z,0.00
2022-10-16T04:54:03.491Z,0.00
2022-10-16T04:55:03.479Z,0.00
2022-10-16T04:56:03.488Z,0.00
2022-10-16T04:57:03.517Z,0.00
2022-10-16T04:58:03.509Z,0.00
2022-10-16T04:59:03.529Z,0.00
2022-10-16T05:00:03.429Z,0.00
2022-10-16T05:01:03.398Z,0.00
2022-10-16T05:02:03.390Z,0.00
2022-10-16T05:03:03.501Z,0.00
2022-10-16T05:04:03.425Z,0.00
2022-10-16T05:05:03.431Z,0.00
2022-10-16T05:06:03.369Z,0.00
2022-10-16T05:07:03.448Z,0.00
2022-10-16T05:08:03.449Z,0.00
2022-10-16T05:09:03.367Z,0.00
2022-10-16T05:10:03.384Z,0.00
2022-10-16T05:11:03.380Z,0.00
2022-10-16T05:12:03.328Z,0.00
2022-10-16T05:13:04.016Z,0.00
2022-10-16T05:14:03.541Z,0.00
2022-10-16T05:15:03.518Z,0.00
2022-10-16T05:16:03.318Z,0.00
2022-10-16T05:17:03.291Z,0.00
2022-10-16T05:18:03.617Z,0.00
2022-10-16T05:20:03.636Z,0.00
2022-10-16T05:21:03.260Z,0.00
2022-10-16T05:22:03.258Z,0.00
2022-10-16T05:23:03.708Z,0.00
2022-10-16T05:24:03.659Z,0.00
2022-10-16T05:25:03.277Z,0.00
2022-10-16T05:26:03.237Z,4.00
2022-10-16T05:27:03.266Z,4.00
2022-10-16T05:28:03.276Z,1.00
2022-10-16T05:29:03.352Z,1.00
2022-10-16T05:30:03.304Z,1.00
2022-10-16T05:31:03.395Z,9.00
2022-10-16T05:32:03.205Z,5.00
2022-10-16T05:33:03.301Z,5.00
2022-10-16T05:34:03.226Z,10.00
2022-10-16T05:35:07.506Z,10.00
2022-10-16T05:36:03.638Z,14.00
2022-10-16T05:37:03.226Z,27.00
2022-10-16T05:38:03.444Z,19.00
2022-10-16T05:39:03.547Z,36.00
2022-10-16T05:40:03.155Z,37.00
2022-10-16T05:41:03.874Z,37.00
2022-10-16T05:42:03.142Z,42.00
2022-10-16T05:43:03.683Z,55.00
2022-10-16T05:44:03.105Z,60.00
2022-10-16T05:45:03.196Z,73.00
2022-10-16T05:46:03.494Z,78.00
2022-10-16T05:47:03.930Z,100.00
2022-10-16T05:48:03.924Z,112.00
2022-10-16T05:49:03.315Z,117.00
2022-10-16T05:50:03.213Z,136.00
2022-10-16T05:51:04.053Z,138.00
2022-10-16T05:52:03.972Z,148.00
2022-10-16T05:53:03.432Z,166.00
2022-10-16T05:54:03.648Z,183.00
2022-10-16T05:55:03.052Z,201.00
2022-10-16T05:56:03.161Z,222.00
2022-10-16T05:57:03.005Z,256.00
2022-10-16T05:58:03.913Z,281.00
2022-10-16T05:59:03.793Z,302.00
2022-10-16T06:00:03.594Z,316.00
2022-10-16T06:01:03.909Z,285.00
2022-10-16T06:02:03.201Z,315.00
2022-10-16T06:03:02.979Z,352.00
2022-10-16T06:04:03.043Z,404.00
2022-10-16T06:05:03.032Z,484.00
2022-10-16T06:06:03.113Z,534.00
2022-10-16T06:07:03.230Z,549.00
2022-10-16T06:08:03.240Z,482.00
2022-10-16T06:09:02.950Z,437.00
2022-10-16T06:10:02.951Z,484.00
2022-10-16T06:11:02.962Z,519.00
2022-10-16T06:12:02.972Z,596.00
2022-10-16T06:13:02.950Z,758.00
2022-10-16T06:14:02.962Z,884.00
2022-10-16T06:15:02.973Z,960.00
2022-10-16T06:16:03.000Z,815.00
2022-10-16T06:17:02.981Z,851.00
2022-10-16T06:18:02.890Z,1013.00
2022-10-16T06:19:02.989Z,949.00
2022-10-16T06:20:03.000Z,848.00
2022-10-16T06:21:02.918Z,847.00
2022-10-16T06:22:03.039Z,866.00
2022-10-16T06:23:03.139Z,826.00
2022-10-16T06:24:02.954Z,1012.00
2022-10-16T06:25:03.029Z,1016.00
2022-10-16T06:26:03.159Z,995.00
2022-10-16T06:27:03.162Z,960.00
2022-10-16T06:28:02.963Z,1264.00
2022-10-16T06:29:02.882Z,1210.00
2022-10-16T06:30:02.878Z,1540.00
2022-10-16T06:31:05.775Z,1665.00
2022-10-16T06:32:02.789Z,1490.00
2022-10-16T06:33:03.202Z,1632.00
2022-10-16T06:34:02.808Z,1801.00
2022-10-16T06:35:02.767Z,2334.00
2022-10-16T06:36:02.787Z,2413.00
2022-10-16T06:37:02.817Z,2059.00
2022-10-16T06:38:02.750Z,1961.00
2022-10-16T06:39:02.827Z,1564.00
2022-10-16T06:40:02.737Z,2135.00
2022-10-16T06:41:02.848Z,1958.00
2022-10-16T06:42:02.860Z,1105.00
2022-10-16T06:43:02.937Z,2001.00
2022-10-16T06:44:02.687Z,1700.00
2022-10-16T06:45:02.763Z,2638.00
2022-10-16T06:46:02.706Z,2439.00
2022-10-16T06:47:02.676Z,3071.00
2022-10-16T06:48:03.106Z,3363.00
2022-10-16T06:49:02.646Z,3082.00
2022-10-16T06:50:02.907Z,3368.00
2022-10-16T06:52:03.416Z,2453.00
2022-10-16T06:53:02.659Z,2446.00
2022-10-16T06:54:04.194Z,3524.00
2022-10-16T06:55:03.146Z,3489.00
2022-10-16T06:56:02.661Z,2563.00
2022-10-16T06:57:02.837Z,2043.00
2022-10-16T06:58:02.648Z,2544.00
2022-10-16T06:59:02.765Z,3304.00
2022-10-16T07:00:02.586Z,1828.00
2022-10-16T07:01:03.394Z,1764.00
2022-10-16T07:02:02.865Z,1964.00
2022-10-16T07:03:02.714Z,3268.00
2022-10-16T07:04:03.014Z,3347.00
2022-10-16T07:05:02.594Z,2545.00
2022-10-16T07:06:03.514Z,3888.00
2022-10-16T07:07:05.654Z,2891.00
2022-10-16T07:08:03.233Z,2971.00
2022-10-16T07:09:02.623Z,2852.00
2022-10-16T07:10:03.193Z,3740.00
2022-10-16T07:11:03.662Z,3786.00
2022-10-16T07:12:02.512Z,4001.00
2022-10-16T07:13:02.493Z,4235.00
2022-10-16T07:14:02.487Z,3280.00
2022-10-16T07:15:02.491Z,2899.00
2022-10-16T07:16:02.526Z,3266.00
2022-10-16T07:17:02.710Z,2668.00
2022-10-16T07:18:02.683Z,2075.00
2022-10-16T07:19:02.694Z,3561.00
2022-10-16T07:20:02.773Z,5124.00
2022-10-16T07:21:02.511Z,4937.00
2022-10-16T07:22:02.935Z,5409.00
2022-10-16T07:23:02.947Z,5081.00
2022-10-16T07:24:02.627Z,3021.00
2022-10-16T07:25:03.002Z,3597.00
2022-10-16T07:26:03.017Z,4636.00
2022-10-16T07:27:02.741Z,2940.00
2022-10-16T07:28:03.021Z,4792.00
2022-10-16T07:29:03.053Z,3217.00
2022-10-16T07:30:03.926Z,4728.00
2022-10-16T07:31:02.360Z,4660.00
2022-10-16T07:32:03.190Z,4708.00
2022-10-16T07:33:03.190Z,5271.00
2022-10-16T07:34:02.592Z,6326.00
2022-10-16T07:35:03.293Z,4966.00
2022-10-16T07:36:02.400Z,5321.00
2022-10-16T07:37:02.461Z,6449.00
2022-10-16T07:38:03.240Z,6607.00
2022-10-16T07:39:02.298Z,4796.00
2022-10-16T07:40:03.322Z,9160.00
2022-10-16T07:41:02.290Z,4681.00
2022-10-16T07:42:02.289Z,8229.00
2022-10-16T07:43:02.301Z,6535.00
2022-10-16T07:44:02.333Z,6536.00
2022-10-16T07:45:02.290Z,6799.00
2022-10-16T07:46:05.500Z,5978.00
2022-10-16T07:47:02.270Z,6381.00
2022-10-16T07:48:02.479Z,5438.00
2022-10-16T07:49:02.287Z,5912.00
2022-10-16T07:50:02.289Z,5105.00
2022-10-16T07:51:02.207Z,4286.00
2022-10-16T07:52:02.219Z,3525.00
2022-10-16T07:53:02.324Z,3520.00
2022-10-16T07:54:02.213Z,3797.00
2022-10-16T07:55:02.529Z,2882.00
2022-10-16T07:56:02.179Z,3657.00
2022-10-16T07:57:02.166Z,3656.00
2022-10-16T07:58:02.169Z,4768.00
2022-10-16T07:59:02.150Z,2459.00
2022-10-16T08:00:02.175Z,3766.00
2022-10-16T08:01:02.171Z,2899.00
2022-10-16T08:02:02.377Z,4253.00
2022-10-16T08:03:02.590Z,3572.00
2022-10-16T08:04:02.274Z,3137.00
2022-10-16T08:05:02.128Z,3948.00
2022-10-16T08:06:02.191Z,3939.00
2022-10-16T08:07:02.397Z,3942.00
2022-10-16T08:08:02.098Z,4170.00
2022-10-16T08:09:02.087Z,5162.00
2022-10-16T08:10:02.137Z,3829.00
2022-10-16T08:11:02.686Z,3811.00
2022-10-16T08:12:02.848Z,3783.00
2022-10-16T08:13:02.911Z,2536.00
2022-10-16T08:14:02.456Z,4032.00
2022-10-16T08:15:02.064Z,4638.00
2022-10-16T08:16:02.266Z,4465.00
2022-10-16T08:17:02.486Z,3308.00
2022-10-16T08:18:02.756Z,3911.00
2022-10-16T08:19:02.485Z,3391.00
2022-10-16T08:20:02.502Z,3960.00
2022-10-16T08:21:02.747Z,2492.00
2022-10-16T08:22:02.319Z,2661.00
2022-10-16T08:23:02.554Z,3878.00
2022-10-16T08:24:01.975Z,1702.00
2022-10-16T08:25:02.017Z,4223.00
2022-10-16T08:26:01.997Z,3070.00
2022-10-16T08:27:01.977Z,2264.00
2022-10-16T08:28:01.976Z,3450.00
2022-10-16T08:29:02.212Z,2279.00
2022-10-16T08:30:02.155Z,3364.00
2022-10-16T08:31:02.155Z,2625.00
2022-10-16T08:32:02.026Z,2672.00
2022-10-16T08:33:01.943Z,3421.00
2022-10-16T08:34:02.185Z,2875.00
2022-10-16T08:35:01.978Z,2545.00
2022-10-16T08:36:02.418Z,2200.00
2022-10-16T08:37:02.405Z,3825.00
2022-10-16T08:38:01.925Z,3806.00
2022-10-16T08:39:02.217Z,3763.00
2022-10-16T08:40:03.354Z,3729.00
2022-10-16T08:41:02.638Z,3737.00
2022-10-16T08:42:02.665Z,3807.00
2022-10-16T08:43:02.463Z,3818.00
2022-10-16T08:44:01.891Z,3840.00
2022-10-16T08:45:01.955Z,3782.00
2022-10-16T08:46:02.880Z,3851.00
2022-10-16T08:47:01.842Z,3767.00
2022-10-16T08:48:01.863Z,3825.00
2022-10-16T08:49:02.207Z,3804.00
2022-10-16T08:50:02.423Z,3840.00
2022-10-16T08:51:01.882Z,3859.00
2022-10-16T08:52:01.813Z,3809.00
2022-10-16T08:53:02.723Z,3840.00
2022-10-16T08:54:02.354Z,3865.00
2022-10-16T08:55:02.023Z,3874.00
2022-10-16T08:56:02.682Z,3882.00
2022-10-16T08:57:01.762Z,3909.00
2022-10-16T08:58:02.351Z,3883.00
2022-10-16T08:59:03.240Z,3879.00
2022-10-16T09:00:01.765Z,3895.00
2022-10-16T09:01:02.492Z,3871.00
2022-10-16T09:02:01.783Z,3894.00
2022-10-16T09:03:02.382Z,3774.00
2022-10-16T09:04:02.182Z,4300.00
2022-10-16T09:05:02.592Z,3943.00
2022-10-16T09:06:01.866Z,3947.00
2022-10-16T09:07:01.703Z,3967.00
2022-10-16T09:09:01.743Z,3913.00
2022-10-16T09:10:01.713Z,4039.00
2022-10-16T09:11:01.722Z,4055.00
2022-10-16T09:12:01.675Z,3959.00
2022-10-16T09:13:01.652Z,3985.00
2022-10-16T09:14:01.659Z,4066.00
2022-10-16T09:15:01.671Z,3997.00
2022-10-16T09:16:01.679Z,3981.00
2022-10-16T09:17:01.858Z,3966.00
2022-10-16T09:18:01.621Z,4272.00
2022-10-16T09:19:01.829Z,4122.00
2022-10-16T09:20:01.830Z,4044.00
2022-10-16T09:21:01.851Z,2911.00
2022-10-16T09:22:01.870Z,6419.00
2022-10-16T09:23:01.880Z,4368.00
2022-10-16T09:24:01.890Z,4174.00
2022-10-16T09:25:01.631Z,4259.00
2022-10-16T09:26:01.570Z,4211.00
2022-10-16T09:27:01.561Z,4235.00
2022-10-16T09:28:01.558Z,4391.00
2022-10-16T09:29:01.615Z,4283.00
2022-10-16T09:30:01.749Z,4172.00
2022-10-16T09:31:01.822Z,4167.00
2022-10-16T09:32:01.551Z,4133.00
2022-10-16T09:33:01.810Z,3346.00
2022-10-16T09:34:01.561Z,4714.00
2022-10-16T09:35:02.050Z,6043.00
2022-10-16T09:36:01.491Z,4631.00
2022-10-16T09:37:01.603Z,4278.00
2022-10-16T09:38:01.799Z,4789.00
2022-10-16T09:39:02.146Z,3573.00
2022-10-16T09:40:05.254Z,4422.00
2022-10-16T09:41:03.557Z,4398.00
2022-10-16T09:42:01.430Z,4547.00
2022-10-16T09:43:01.627Z,4194.00
2022-10-16T09:44:01.627Z,4303.00
2022-10-16T09:45:01.662Z,4226.00
2022-10-16T09:46:01.648Z,3767.00
2022-10-16T09:47:01.408Z,5008.00
2022-10-16T09:48:01.681Z,5146.00
2022-10-16T09:49:01.463Z,4272.00
2022-10-16T09:50:01.399Z,4384.00
2022-10-16T09:51:01.399Z,4354.00
2022-10-16T09:52:01.890Z,4706.00
2022-10-16T09:53:01.458Z,4076.00
2022-10-16T09:54:02.114Z,4285.00
2022-10-16T09:55:01.499Z,4375.00
2022-10-16T09:56:01.508Z,4373.00
2022-10-16T09:57:01.720Z,2441.00
2022-10-16T09:58:01.368Z,4584.00
2022-10-16T09:59:02.350Z,4427.00
2022-10-16T10:00:01.319Z,4590.00
2022-10-16T10:01:01.988Z,4240.00
2022-10-16T10:02:01.958Z,4434.00
2022-10-16T10:03:01.553Z,4799.00
2022-10-16T10:04:02.072Z,3549.00
2022-10-16T10:05:01.368Z,4454.00
2022-10-16T10:06:02.330Z,4419.00
2022-10-16T10:07:01.990Z,4411.00
2022-10-16T10:08:02.189Z,4461.00
2022-10-16T10:09:02.089Z,4436.00
2022-10-16T10:10:02.194Z,4440.00
2022-10-16T10:11:02.139Z,4478.00
2022-10-16T10:13:01.247Z,4589.00
2022-10-16T10:14:02.113Z,4512.00
2022-10-16T10:15:01.426Z,4454.00
2022-10-16T10:16:01.842Z,4535.00
2022-10-16T10:17:01.716Z,4607.00
2022-10-16T10:18:01.317Z,4653.00
2022-10-16T10:19:01.464Z,4715.00
2022-10-16T10:20:01.306Z,4692.00
2022-10-16T10:21:01.387Z,4628.00
2022-10-16T10:22:01.353Z,4698.00
2022-10-16T10:23:01.182Z,4640.00
2022-10-16T10:24:01.370Z,4626.00
2022-10-16T10:25:01.376Z,2688.00
2022-10-16T10:26:01.386Z,5112.00
2022-10-16T10:27:01.187Z,5059.00
2022-10-16T10:28:01.417Z,4644.00
2022-10-16T10:29:01.192Z,5212.00
2022-10-16T10:30:01.338Z,4640.00
2022-10-16T10:31:01.335Z,5015.00
2022-10-16T10:32:01.345Z,5541.00
2022-10-16T10:33:01.355Z,5003.00
2022-10-16T10:34:01.145Z,5040.00
2022-10-16T10:35:01.365Z,5134.00
2022-10-16T10:36:01.376Z,4972.00
2022-10-16T10:37:01.414Z,6136.00
2022-10-16T10:38:01.389Z,3630.00
2022-10-16T10:39:01.067Z,6731.00
2022-10-16T10:40:01.394Z,5774.00
2022-10-16T10:41:01.053Z,5987.00
2022-10-16T10:42:01.268Z,5396.00
2022-10-16T10:43:01.123Z,5087.00
2022-10-16T10:44:01.004Z,2463.00
2022-10-16T10:45:01.015Z,5789.00
2022-10-16T10:46:00.975Z,3604.00
2022-10-16T10:47:01.442Z,5696.00
2022-10-16T10:48:00.974Z,5613.00
2022-10-16T10:49:00.983Z,5644.00
2022-10-16T10:50:00.958Z,5668.00
2022-10-16T10:51:00.954Z,5389.00
2022-10-16T10:52:01.472Z,3100.00
2022-10-16T10:53:00.964Z,5837.00
2022-10-16T10:54:01.483Z,5663.00
2022-10-16T10:55:01.494Z,5627.00
2022-10-16T10:56:00.914Z,5572.00
2022-10-16T10:57:01.054Z,5610.00
2022-10-16T10:58:00.902Z,5675.00
2022-10-16T10:59:01.116Z,5658.00
2022-10-16T11:00:00.883Z,5708.00
2022-10-16T11:01:00.883Z,5777.00
2022-10-16T11:02:00.946Z,5653.00
2022-10-16T11:03:00.885Z,5736.00
2022-10-16T11:04:01.073Z,6128.00
2022-10-16T11:05:00.856Z,5919.00
2022-10-16T11:06:01.174Z,6107.00
2022-10-16T11:07:00.874Z,5955.00
2022-10-16T11:08:00.963Z,5730.00
2022-10-16T11:09:01.702Z,5999.00
2022-10-16T11:10:01.583Z,7012.00
2022-10-16T11:11:01.454Z,7523.00
2022-10-16T11:12:00.866Z,5969.00
2022-10-16T11:13:01.663Z,5243.00
2022-10-16T11:14:00.959Z,2190.00
2022-10-16T11:15:01.621Z,8647.00
2022-10-16T11:16:01.284Z,8549.00
2022-10-16T11:17:00.825Z,7916.00
2022-10-16T11:18:00.833Z,8201.00
2022-10-16T11:19:00.842Z,8373.00
2022-10-16T11:20:00.851Z,11995.00
2022-10-16T11:21:00.942Z,10607.00
2022-10-16T11:22:01.061Z,9871.00
2022-10-16T11:23:01.071Z,8387.00
2022-10-16T11:24:01.199Z,6895.00
2022-10-16T11:25:00.774Z,9389.00
2022-10-16T11:26:00.701Z,8851.00
2022-10-16T11:27:00.700Z,10192.00
2022-10-16T11:28:00.701Z,8522.00
2022-10-16T11:29:00.818Z,8527.00
2022-10-16T11:30:00.676Z,7739.00
2022-10-16T11:31:00.704Z,7866.00
2022-10-16T11:32:00.711Z,8956.00
2022-10-16T11:33:00.721Z,7796.00
2022-10-16T11:34:00.720Z,6173.00
2022-10-16T11:35:00.950Z,7152.00
2022-10-16T11:36:00.971Z,6607.00
2022-10-16T11:37:00.943Z,6616.00
2022-10-16T11:38:00.946Z,5814.00
2022-10-16T11:39:00.961Z,6133.00
2022-10-16T11:40:00.756Z,6535.00
2022-10-16T11:41:01.181Z,5869.00
2022-10-16T11:42:00.608Z,6762.00
2022-10-16T11:43:01.251Z,5920.00
2022-10-16T11:44:00.669Z,6630.00
2022-10-16T11:45:00.569Z,6844.00
2022-10-16T11:46:00.560Z,5886.00
2022-10-16T11:47:24.458Z,5292.00
2022-10-16T11:48:00.693Z,5135.00
2022-10-16T11:49:00.620Z,5083.00
2022-10-16T11:50:00.820Z,5061.00
2022-10-16T11:51:00.538Z,5022.00
2022-10-16T11:52:00.613Z,1790.00
2022-10-16T11:53:00.530Z,13162.00
2022-10-16T11:54:00.578Z,10410.00
2022-10-16T11:55:00.851Z,6823.00
2022-10-16T11:56:00.867Z,6085.00
2022-10-16T11:57:00.499Z,5180.00
2022-10-16T11:58:00.490Z,4967.00
2022-10-16T11:59:00.486Z,4951.00
2022-10-16T12:00:00.534Z,4895.00
2022-10-16T12:01:00.530Z,4887.00
2022-10-16T12:02:00.889Z,4917.00
2022-10-16T12:03:00.900Z,4779.00
2022-10-16T12:04:01.067Z,4755.00
2022-10-16T12:05:00.429Z,5311.00
2022-10-16T12:06:00.419Z,5012.00
2022-10-16T12:07:00.930Z,4830.00
2022-10-16T12:08:00.929Z,4790.00
2022-10-16T12:09:00.434Z,4747.00
2022-10-16T12:10:00.428Z,4733.00
2022-10-16T12:11:00.394Z,4735.00
2022-10-16T12:12:00.379Z,4733.00
2022-10-16T12:13:00.388Z,4739.00
2022-10-16T12:14:00.368Z,4733.00
2022-10-16T12:15:19.834Z,4749.00
2022-10-16T12:16:00.361Z,4773.00
2022-10-16T12:17:00.352Z,4832.00
2022-10-16T12:18:00.358Z,4941.00
2022-10-16T12:19:00.338Z,5012.00
2022-10-16T12:20:00.524Z,4941.00
2022-10-16T12:21:00.446Z,4837.00
2022-10-16T12:22:00.314Z,4795.00
2022-10-16T12:23:00.329Z,4784.00
2022-10-16T12:24:00.297Z,4881.00
2022-10-16T12:25:00.334Z,5136.00
2022-10-16T12:26:00.458Z,5449.00
2022-10-16T12:27:01.077Z,5269.00
2022-10-16T12:28:00.280Z,5380.00
2022-10-16T12:29:01.342Z,5059.00
2022-10-16T12:30:01.081Z,4756.00
2022-10-16T12:31:01.243Z,4728.00
2022-10-16T12:32:00.708Z,7762.00
2022-10-16T12:33:00.267Z,7788.00
2022-10-16T12:34:01.216Z,6317.00
2022-10-16T12:35:01.138Z,5741.00
2022-10-16T12:36:00.217Z,5223.00
2022-10-16T12:37:01.197Z,4998.00
2022-10-16T12:38:00.226Z,4999.00
2022-10-16T12:39:01.247Z,4965.00
2022-10-16T12:40:01.147Z,4955.00
2022-10-16T12:41:01.058Z,4891.00
2022-10-16T12:42:01.198Z,4840.00